Acequia, Idaho
Current Conditions -  °F | °C
As of 3:31 PM on Friday 19 Dec 2014 (Local Time) from KBYI Reporting Station
Light Rain Light Rain  
Wind Chill: 33°   Ceiling: 3000
Heat Index: 39°   Visibility: 10mi
Dew Point: 35°   Wind: 8mph
Humidity: 86%   Direction: 270°W
Pressure: 30.07"   Gusts: NA
Location:  42.6416°N, 113.637°W
Report Text: KBYI 192231Z AUTO 27007KT 10SM -RA FEW025 OVC030 04/02 A3007 RMK AO2 P0000 T00390017
Loading
Personal Weather Stations






























Interactive Weather Map New forecast layout! Learn more

10-Day Weather Forecast

Advertisements
Track Severe Weather on mobile